createdAt,value
2023-06-04T00:00:28.749Z,0.00
2023-06-04T00:01:28.733Z,0.00
2023-06-04T00:02:28.780Z,0.00
2023-06-04T00:03:28.928Z,0.00
2023-06-04T00:04:28.996Z,0.00
2023-06-04T00:05:28.676Z,0.00
2023-06-04T00:06:28.627Z,0.00
2023-06-04T00:07:28.637Z,0.00
2023-06-04T00:08:28.636Z,0.00
2023-06-04T00:09:28.966Z,0.00
2023-06-04T00:10:28.623Z,0.00
2023-06-04T00:11:28.653Z,0.00
2023-06-04T00:12:28.603Z,0.00
2023-06-04T00:13:28.574Z,0.00
2023-06-04T00:14:29.386Z,0.00
2023-06-04T00:15:28.561Z,0.00
2023-06-04T00:16:28.564Z,0.00
2023-06-04T00:17:28.569Z,0.00
2023-06-04T00:18:28.577Z,0.00
2023-06-04T00:19:28.786Z,0.00
2023-06-04T00:20:28.495Z,0.00
2023-06-04T00:21:28.470Z,0.00
2023-06-04T00:22:28.495Z,0.00
2023-06-04T00:23:28.443Z,0.00
2023-06-04T00:24:28.441Z,0.00
2023-06-04T00:25:28.431Z,0.00
2023-06-04T00:26:28.431Z,0.00
2023-06-04T00:27:28.411Z,0.00
2023-06-04T00:28:28.391Z,0.00
2023-06-04T00:29:28.352Z,0.00
2023-06-04T00:30:28.387Z,0.00
2023-06-04T00:31:28.406Z,0.00
2023-06-04T00:32:28.447Z,0.00
2023-06-04T00:33:28.374Z,0.00
2023-06-04T00:34:28.306Z,0.00
2023-06-04T00:35:28.305Z,0.00
2023-06-04T00:36:28.280Z,0.00
2023-06-04T00:37:28.288Z,0.00
2023-06-04T00:38:28.287Z,0.00
2023-06-04T00:39:28.263Z,0.00
2023-06-04T00:40:28.224Z,0.00
2023-06-04T00:41:28.221Z,0.00
2023-06-04T00:42:28.238Z,0.00
2023-06-04T00:43:28.202Z,0.00
2023-06-04T00:44:28.201Z,0.00
2023-06-04T00:45:28.166Z,0.00
2023-06-04T00:46:28.300Z,0.00
2023-06-04T00:47:28.170Z,0.00
2023-06-04T00:48:28.154Z,0.00
2023-06-04T00:49:28.147Z,0.00
2023-06-04T00:50:28.107Z,0.00
2023-06-04T00:51:28.093Z,0.00
2023-06-04T00:52:28.138Z,0.00
2023-06-04T00:53:28.086Z,0.00
2023-06-04T00:54:28.355Z,0.00
2023-06-04T00:55:28.110Z,0.00
2023-06-04T00:56:28.046Z,0.00
2023-06-04T00:57:28.045Z,0.00
2023-06-04T00:58:28.016Z,0.00
2023-06-04T00:59:27.998Z,0.00
2023-06-04T01:00:28.029Z,0.00
2023-06-04T01:01:28.019Z,0.00
2023-06-04T01:02:27.993Z,0.00
2023-06-04T01:03:27.999Z,0.00
2023-06-04T01:04:28.289Z,0.00
2023-06-04T01:05:27.936Z,0.00
2023-06-04T01:06:27.939Z,0.00
2023-06-04T01:07:27.906Z,0.00
2023-06-04T01:08:27.912Z,0.00
2023-06-04T01:09:27.881Z,0.00
2023-06-04T01:10:27.897Z,0.00
2023-06-04T01:11:27.848Z,0.00
2023-06-04T01:12:27.858Z,0.00
2023-06-04T01:13:27.815Z,0.00
2023-06-04T01:14:27.821Z,0.00
2023-06-04T01:15:27.925Z,0.00
2023-06-04T01:16:27.883Z,0.00
2023-06-04T01:17:27.842Z,0.00
2023-06-04T01:18:27.770Z,0.00
2023-06-04T01:19:27.875Z,0.00
2023-06-04T01:20:27.775Z,0.00
2023-06-04T01:21:27.780Z,0.00
2023-06-04T01:22:27.746Z,0.00
2023-06-04T01:23:27.771Z,0.00
2023-06-04T01:24:27.706Z,0.00
2023-06-04T01:25:27.733Z,0.00
2023-06-04T01:26:28.023Z,0.00
2023-06-04T01:27:27.661Z,0.00
2023-06-04T01:28:27.663Z,0.00
2023-06-04T01:29:27.635Z,0.00
2023-06-04T01:30:27.641Z,0.00
2023-06-04T01:31:27.646Z,0.00
2023-06-04T01:32:27.605Z,0.00
2023-06-04T01:33:27.599Z,0.00
2023-06-04T01:34:27.565Z,0.00
2023-06-04T01:35:29.179Z,0.00
2023-06-04T01:36:27.545Z,0.00
2023-06-04T01:37:27.558Z,0.00
2023-06-04T01:38:27.555Z,0.00
2023-06-04T01:39:27.561Z,0.00
2023-06-04T01:40:27.588Z,0.00
2023-06-04T01:41:27.491Z,0.00
2023-06-04T01:42:27.510Z,0.00
2023-06-04T01:43:27.487Z,0.00
2023-06-04T01:44:27.509Z,0.00
2023-06-04T01:45:27.506Z,0.00
2023-06-04T01:46:27.499Z,0.00
2023-06-04T01:47:27.521Z,0.00
2023-06-04T01:48:27.402Z,0.00
2023-06-04T01:49:27.393Z,0.00
2023-06-04T01:50:27.383Z,0.00
2023-06-04T01:51:27.415Z,0.00
2023-06-04T01:52:27.386Z,0.00
2023-06-04T01:53:27.357Z,0.00
2023-06-04T01:54:27.339Z,0.00
2023-06-04T01:55:27.370Z,0.00
2023-06-04T01:56:27.346Z,0.00
2023-06-04T01:57:27.319Z,0.00
2023-06-04T01:58:27.310Z,0.00
2023-06-04T01:59:27.290Z,0.00
2023-06-04T02:00:27.275Z,0.00
2023-06-04T02:01:27.358Z,0.00
2023-06-04T02:02:27.622Z,0.00
2023-06-04T02:03:27.379Z,0.00
2023-06-04T02:04:27.223Z,0.00
2023-06-04T02:05:27.544Z,0.00
2023-06-04T02:06:27.484Z,0.00
2023-06-04T02:07:27.198Z,0.00
2023-06-04T02:08:27.227Z,0.00
2023-06-04T02:09:27.204Z,0.00
2023-06-04T02:10:27.165Z,0.00
2023-06-04T02:11:28.972Z,0.00
2023-06-04T02:12:27.217Z,0.00
2023-06-04T02:13:27.155Z,0.00
2023-06-04T02:14:27.128Z,0.00
2023-06-04T02:15:27.203Z,0.00
2023-06-04T02:16:27.549Z,0.00
2023-06-04T02:17:27.162Z,0.00
2023-06-04T02:18:27.161Z,0.00
2023-06-04T02:19:27.143Z,0.00
2023-06-04T02:20:27.078Z,0.00
2023-06-04T02:21:27.042Z,0.00
2023-06-04T02:22:27.089Z,0.00
2023-06-04T02:23:27.067Z,0.00
2023-06-04T02:24:27.027Z,0.00
2023-06-04T02:25:27.010Z,0.00
2023-06-04T02:26:27.009Z,0.00
2023-06-04T02:27:27.026Z,0.00
2023-06-04T02:28:27.246Z,0.00
2023-06-04T02:29:26.964Z,0.00
2023-06-04T02:30:26.943Z,0.00
2023-06-04T02:31:27.030Z,0.00
2023-06-04T02:32:26.959Z,0.00
2023-06-04T02:33:27.225Z,0.00
2023-06-04T02:34:26.927Z,0.00
2023-06-04T02:35:26.893Z,0.00
2023-06-04T02:36:26.942Z,0.00
2023-06-04T02:37:26.860Z,0.00
2023-06-04T02:38:26.890Z,0.00
2023-06-04T02:39:27.159Z,0.00
2023-06-04T02:40:26.826Z,0.00
2023-06-04T02:41:26.860Z,4.00
2023-06-04T02:42:26.807Z,4.00
2023-06-04T02:43:26.830Z,4.00
2023-06-04T02:44:27.778Z,0.00
2023-06-04T02:45:26.803Z,0.00
2023-06-04T02:46:27.240Z,4.00
2023-06-04T02:47:26.814Z,4.00
2023-06-04T02:48:26.752Z,4.00
2023-06-04T02:49:26.772Z,4.00
2023-06-04T02:50:26.704Z,8.00
2023-06-04T02:51:27.470Z,4.00
2023-06-04T02:52:26.809Z,8.00
2023-06-04T02:53:26.691Z,8.00
2023-06-04T02:54:26.691Z,8.00
2023-06-04T02:55:26.678Z,8.00
2023-06-04T02:56:26.698Z,8.00
2023-06-04T02:57:29.422Z,12.00
2023-06-04T02:58:26.632Z,12.00
2023-06-04T02:59:26.656Z,16.00
2023-06-04T03:00:26.650Z,16.00
2023-06-04T03:01:26.650Z,20.00
2023-06-04T03:02:26.598Z,24.00
2023-06-04T03:03:26.642Z,24.00
2023-06-04T03:04:26.577Z,24.00
2023-06-04T03:05:26.549Z,32.00
2023-06-04T03:06:26.875Z,32.00
2023-06-04T03:07:28.303Z,36.00
2023-06-04T03:08:26.880Z,44.00
2023-06-04T03:09:26.503Z,44.00
2023-06-04T03:10:26.825Z,52.00
2023-06-04T03:11:26.490Z,56.00
2023-06-04T03:12:26.480Z,60.00
2023-06-04T03:13:26.473Z,68.00
2023-06-04T03:14:26.486Z,72.00
2023-06-04T03:15:26.447Z,80.00
2023-06-04T03:16:26.458Z,92.00
2023-06-04T03:17:26.475Z,96.00
2023-06-04T03:18:26.430Z,108.00
2023-06-04T03:19:26.396Z,120.00
2023-06-04T03:20:26.401Z,128.00
2023-06-04T03:21:26.358Z,136.00
2023-06-04T03:22:26.384Z,148.00
2023-06-04T03:23:26.794Z,164.00
2023-06-04T03:24:26.821Z,176.00
2023-06-04T03:25:26.326Z,188.00
2023-06-04T03:26:26.359Z,204.00
2023-06-04T03:27:26.313Z,220.00
2023-06-04T03:28:26.293Z,236.00
2023-06-04T03:29:26.272Z,252.00
2023-06-04T03:30:26.294Z,268.00
2023-06-04T03:31:27.470Z,288.00
2023-06-04T03:32:26.254Z,304.00
2023-06-04T03:33:26.242Z,328.00
2023-06-04T03:34:26.278Z,344.00
2023-06-04T03:35:26.209Z,364.00
2023-06-04T03:36:28.645Z,384.00
2023-06-04T03:37:26.431Z,408.00
2023-06-04T03:38:27.369Z,432.00
2023-06-04T03:39:26.436Z,452.00
2023-06-04T03:40:27.085Z,476.00
2023-06-04T03:41:26.623Z,500.00
2023-06-04T03:42:26.142Z,520.00
2023-06-04T03:43:27.097Z,544.00
2023-06-04T03:44:26.111Z,568.00
2023-06-04T03:45:27.106Z,592.00
2023-06-04T03:46:26.114Z,616.00
2023-06-04T03:47:26.938Z,640.00
2023-06-04T03:48:26.844Z,668.00
2023-06-04T03:49:26.054Z,692.00
2023-06-04T03:50:26.065Z,716.00
2023-06-04T03:51:27.043Z,744.00
2023-06-04T03:52:26.049Z,768.00
2023-06-04T03:53:26.010Z,796.00
2023-06-04T03:54:26.005Z,820.00
2023-06-04T03:55:26.294Z,840.00
2023-06-04T03:56:25.977Z,868.00
2023-06-04T03:57:26.979Z,892.00
2023-06-04T03:58:26.896Z,916.00
2023-06-04T03:59:25.936Z,944.00
2023-06-04T04:00:25.983Z,964.00
2023-06-04T04:01:26.045Z,992.00
2023-06-04T04:02:26.054Z,1016.00
2023-06-04T04:03:25.932Z,1040.00
2023-06-04T04:04:26.251Z,1060.00
2023-06-04T04:05:27.831Z,1088.00
2023-06-04T04:06:26.632Z,1108.00
2023-06-04T04:07:25.848Z,1128.00
2023-06-04T04:08:25.944Z,1148.00
2023-06-04T04:09:25.840Z,1172.00
2023-06-04T04:10:26.013Z,1192.00
2023-06-04T04:11:25.980Z,1220.00
2023-06-04T04:12:26.161Z,1236.00
2023-06-04T04:13:26.982Z,1256.00
2023-06-04T04:14:26.186Z,1276.00
2023-06-04T04:15:26.290Z,1296.00
2023-06-04T04:16:25.787Z,1316.00
2023-06-04T04:17:25.815Z,1336.00
2023-06-04T04:18:25.752Z,1356.00
2023-06-04T04:19:25.741Z,1380.00
2023-06-04T04:20:25.709Z,1392.00
2023-06-04T04:21:25.683Z,1412.00
2023-06-04T04:22:26.708Z,1432.00
2023-06-04T04:23:25.988Z,1452.00
2023-06-04T04:24:25.769Z,1472.00
2023-06-04T04:25:25.675Z,1488.00
2023-06-04T04:26:25.770Z,1508.00
2023-06-04T04:27:25.789Z,1524.00
2023-06-04T04:28:25.934Z,1544.00
2023-06-04T04:29:25.993Z,1560.00
2023-06-04T04:30:25.605Z,1576.00
2023-06-04T04:31:26.800Z,1596.00
2023-06-04T04:32:25.603Z,1612.00
2023-06-04T04:33:26.597Z,1628.00
2023-06-04T04:34:25.845Z,1644.00
2023-06-04T04:35:25.540Z,1664.00
2023-06-04T04:36:26.488Z,1680.00
2023-06-04T04:37:25.507Z,1700.00
2023-06-04T04:38:25.788Z,1720.00
2023-06-04T04:39:25.848Z,1736.00
2023-06-04T04:40:26.436Z,1756.00
2023-06-04T04:41:25.512Z,1776.00
2023-06-04T04:42:25.795Z,1796.00
2023-06-04T04:43:25.471Z,1812.00
2023-06-04T04:44:25.478Z,1828.00
2023-06-04T04:45:25.419Z,1848.00
2023-06-04T04:46:25.436Z,1860.00
2023-06-04T04:47:25.503Z,1880.00
2023-06-04T04:48:25.783Z,1896.00
2023-06-04T04:49:25.376Z,1912.00
2023-06-04T04:50:25.391Z,1928.00
2023-06-04T04:51:25.360Z,1948.00
2023-06-04T04:52:25.360Z,1968.00
2023-06-04T04:53:25.351Z,1984.00
2023-06-04T04:54:25.340Z,1996.00
2023-06-04T04:55:27.566Z,2008.00
2023-06-04T04:56:25.301Z,2028.00
2023-06-04T04:57:26.335Z,2040.00
2023-06-04T04:58:27.225Z,2056.00
2023-06-04T04:59:26.177Z,2076.00
2023-06-04T05:00:25.297Z,2088.00
2023-06-04T05:01:25.470Z,2104.00
2023-06-04T05:02:25.520Z,2116.00
2023-06-04T05:03:25.252Z,2136.00
2023-06-04T05:04:25.258Z,2148.00
2023-06-04T05:05:25.613Z,2156.00
2023-06-04T05:06:27.010Z,2172.00
2023-06-04T05:07:25.233Z,2192.00
2023-06-04T05:08:27.938Z,2212.00
2023-06-04T05:09:25.216Z,2220.00
2023-06-04T05:10:25.875Z,2228.00
2023-06-04T05:11:25.351Z,2240.00
2023-06-04T05:12:25.383Z,2260.00
2023-06-04T05:13:25.463Z,2272.00
2023-06-04T05:14:25.498Z,2288.00
2023-06-04T05:15:25.553Z,2304.00
2023-06-04T05:16:25.177Z,2312.00
2023-06-04T05:17:26.042Z,2336.00
2023-06-04T05:18:25.758Z,2348.00
2023-06-04T05:19:25.103Z,2360.00
2023-06-04T05:20:25.317Z,2376.00
2023-06-04T05:21:26.102Z,2388.00
2023-06-04T05:22:25.992Z,2392.00
2023-06-04T05:23:25.503Z,2400.00
2023-06-04T05:24:25.265Z,2412.00
2023-06-04T05:25:26.214Z,2428.00
2023-06-04T05:26:24.961Z,2436.00
2023-06-04T05:27:25.518Z,2444.00
2023-06-04T05:28:24.951Z,2452.00
2023-06-04T05:29:25.826Z,2464.00
2023-06-04T05:30:25.754Z,2480.00
2023-06-04T05:31:26.916Z,2492.00
2023-06-04T05:32:24.919Z,2532.00
2023-06-04T05:33:24.891Z,2520.00
2023-06-04T05:34:24.956Z,2524.00
2023-06-04T05:35:25.504Z,2528.00
2023-06-04T05:36:25.310Z,2532.00
2023-06-04T05:37:25.303Z,2544.00
2023-06-04T05:38:25.664Z,2556.00
2023-06-04T05:39:24.837Z,2564.00
2023-06-04T05:40:25.793Z,2568.00
2023-06-04T05:41:24.861Z,2580.00
2023-06-04T05:42:27.615Z,2592.00
2023-06-04T05:43:24.779Z,2604.00
2023-06-04T05:44:25.972Z,2604.00
2023-06-04T05:45:24.750Z,2616.00
2023-06-04T05:46:25.817Z,2628.00
2023-06-04T05:47:25.663Z,2632.00
2023-06-04T05:48:25.542Z,2644.00
2023-06-04T05:49:24.695Z,2660.00
2023-06-04T05:50:25.854Z,2668.00
2023-06-04T05:51:24.739Z,2668.00
2023-06-04T05:52:25.743Z,2672.00
2023-06-04T05:53:25.112Z,2680.00
2023-06-04T05:54:25.473Z,2688.00
2023-06-04T05:55:24.991Z,2700.00
2023-06-04T05:56:24.840Z,2712.00
2023-06-04T05:57:25.755Z,2724.00
2023-06-04T05:58:26.058Z,2728.00
2023-06-04T05:59:24.630Z,2732.00
2023-06-04T06:00:24.592Z,2736.00
2023-06-04T06:01:25.071Z,2748.00
2023-06-04T06:02:24.657Z,2760.00
2023-06-04T06:03:25.855Z,2764.00
2023-06-04T06:04:25.572Z,2776.00
2023-06-04T06:05:24.556Z,2780.00
2023-06-04T06:06:26.958Z,2788.00
2023-06-04T06:07:24.570Z,2796.00
2023-06-04T06:08:25.670Z,2800.00
2023-06-04T06:09:24.557Z,2800.00
2023-06-04T06:10:24.482Z,2812.00
2023-06-04T06:11:25.372Z,2824.00
2023-06-04T06:12:24.768Z,2828.00
2023-06-04T06:13:25.195Z,2836.00
2023-06-04T06:14:24.881Z,2848.00
2023-06-04T06:15:24.897Z,2860.00
2023-06-04T06:16:24.487Z,2872.00
2023-06-04T06:17:26.215Z,2880.00
2023-06-04T06:18:24.358Z,2888.00
2023-06-04T06:19:24.743Z,2900.00
2023-06-04T06:20:24.877Z,2916.00
2023-06-04T06:21:24.645Z,2916.00
2023-06-04T06:22:24.332Z,2928.00
2023-06-04T06:23:24.674Z,2936.00
2023-06-04T06:24:25.212Z,2940.00
2023-06-04T06:25:25.058Z,2952.00
2023-06-04T06:26:25.505Z,2964.00
2023-06-04T06:27:25.380Z,2976.00
2023-06-04T06:28:24.694Z,2984.00
2023-06-04T06:29:27.030Z,2988.00
2023-06-04T06:30:24.638Z,3004.00
2023-06-04T06:31:25.092Z,3012.00
2023-06-04T06:32:25.445Z,3020.00
2023-06-04T06:34:34.869Z,3040.00
2023-06-04T06:35:34.812Z,3044.00
2023-06-04T06:36:34.794Z,3056.00
2023-06-04T06:37:34.796Z,3064.00
2023-06-04T06:38:35.101Z,3076.00
2023-06-04T06:39:34.817Z,3084.00
2023-06-04T06:40:34.803Z,3092.00
2023-06-04T06:41:34.757Z,3100.00
2023-06-04T06:42:34.735Z,3104.00
2023-06-04T06:43:34.719Z,3112.00
2023-06-04T06:44:35.125Z,3120.00
2023-06-04T06:45:36.545Z,3124.00
2023-06-04T06:46:34.799Z,3132.00
2023-06-04T06:47:35.048Z,3140.00
2023-06-04T06:48:35.026Z,3156.00
2023-06-04T06:49:34.969Z,3156.00
2023-06-04T06:50:34.634Z,3160.00
2023-06-04T06:51:34.652Z,3164.00
2023-06-04T06:52:34.864Z,3168.00
2023-06-04T06:53:34.693Z,3176.00
2023-06-04T06:54:34.920Z,3184.00
2023-06-04T06:55:37.393Z,3188.00
2023-06-04T06:56:34.633Z,3200.00
2023-06-04T06:57:34.996Z,3200.00
2023-06-04T06:58:34.599Z,3212.00
2023-06-04T06:59:34.814Z,3216.00
2023-06-04T07:00:34.902Z,3232.00
2023-06-04T07:01:37.480Z,3240.00
2023-06-04T07:02:34.963Z,3236.00
2023-06-04T07:03:35.000Z,3240.00
2023-06-04T07:04:34.485Z,3248.00
2023-06-04T07:05:35.434Z,3260.00
2023-06-04T07:06:34.530Z,3280.00
2023-06-04T07:07:34.455Z,3284.00
2023-06-04T07:08:37.342Z,3284.00
2023-06-04T07:09:37.236Z,3284.00
2023-06-04T07:10:34.844Z,3296.00
2023-06-04T07:11:38.268Z,3304.00
2023-06-04T07:12:37.178Z,3312.00
2023-06-04T07:13:34.812Z,3320.00
2023-06-04T07:14:38.303Z,3324.00
2023-06-04T07:15:36.233Z,3344.00
2023-06-04T07:16:38.372Z,3348.00
2023-06-04T07:17:34.996Z,3356.00
2023-06-04T07:18:35.321Z,3360.00
2023-06-04T07:19:34.631Z,3372.00
2023-06-04T07:20:34.710Z,3376.00
2023-06-04T07:21:36.071Z,3384.00
2023-06-04T07:22:34.254Z,3388.00
2023-06-04T07:23:36.162Z,3396.00
2023-06-04T07:24:36.192Z,3400.00
2023-06-04T07:25:37.050Z,3412.00
2023-06-04T07:26:35.434Z,3420.00
2023-06-04T07:27:34.196Z,3428.00
2023-06-04T07:28:36.108Z,3436.00
2023-06-04T07:29:35.973Z,3444.00
2023-06-04T07:30:34.198Z,3452.00
2023-06-04T07:31:34.239Z,3464.00
2023-06-04T07:32:34.540Z,3468.00
2023-06-04T07:33:34.545Z,3480.00
2023-06-04T07:34:34.423Z,3484.00
2023-06-04T07:35:34.375Z,3496.00
2023-06-04T07:36:36.954Z,3500.00
2023-06-04T07:37:36.837Z,3504.00
2023-06-04T07:38:34.367Z,3512.00
2023-06-04T07:39:36.922Z,3524.00
2023-06-04T07:40:34.407Z,3540.00
2023-06-04T07:41:36.782Z,3540.00
2023-06-04T07:42:34.037Z,3548.00
2023-06-04T07:43:34.024Z,3552.00
2023-06-04T07:44:34.405Z,3540.00
2023-06-04T07:45:36.155Z,3572.00
2023-06-04T07:46:36.790Z,3588.00
2023-06-04T07:47:34.341Z,3608.00
2023-06-04T07:48:34.348Z,3596.00
2023-06-04T07:49:34.352Z,3608.00
2023-06-04T07:50:38.841Z,3636.00
2023-06-04T07:51:36.778Z,3624.00
2023-06-04T07:52:36.807Z,3632.00
2023-06-04T07:53:34.234Z,3624.00
2023-06-04T07:54:34.383Z,3632.00
2023-06-04T07:55:33.856Z,3644.00
2023-06-04T07:56:36.779Z,3640.00
2023-06-04T07:57:36.639Z,3648.00
2023-06-04T07:58:35.844Z,3652.00
2023-06-04T07:59:36.671Z,3664.00
2023-06-04T08:00:34.601Z,3672.00
2023-06-04T08:01:35.772Z,3672.00
2023-06-04T08:02:33.987Z,3680.00
2023-06-04T08:03:33.998Z,3680.00
2023-06-04T08:04:33.829Z,3696.00
2023-06-04T08:05:33.827Z,3696.00
2023-06-04T08:06:33.782Z,3708.00
2023-06-04T08:07:33.742Z,3716.00
2023-06-04T08:08:35.586Z,3704.00
2023-06-04T08:09:33.990Z,3716.00
2023-06-04T08:10:34.053Z,3728.00
2023-06-04T08:11:35.548Z,3740.00
2023-06-04T08:12:33.679Z,3736.00
2023-06-04T08:13:33.680Z,3744.00
2023-06-04T08:14:33.668Z,3756.00
2023-06-04T08:15:34.097Z,3756.00
2023-06-04T08:16:33.748Z,3764.00
2023-06-04T08:17:33.687Z,3776.00
2023-06-04T08:18:33.924Z,3800.00
2023-06-04T08:19:33.808Z,3784.00
2023-06-04T08:20:34.124Z,3792.00
2023-06-04T08:21:36.384Z,3800.00
2023-06-04T08:22:33.709Z,3796.00
2023-06-04T08:23:33.580Z,3820.00
2023-06-04T08:24:33.554Z,3816.00
2023-06-04T08:25:33.581Z,3828.00
2023-06-04T08:26:33.599Z,3828.00
2023-06-04T08:27:33.620Z,3832.00
2023-06-04T08:28:33.871Z,3852.00
2023-06-04T08:29:33.679Z,3852.00
2023-06-04T08:30:33.485Z,3844.00
2023-06-04T08:31:33.531Z,3872.00
2023-06-04T08:32:34.095Z,3868.00
2023-06-04T08:33:33.443Z,3872.00
2023-06-04T08:34:33.612Z,3872.00
2023-06-04T08:35:33.433Z,3872.00
2023-06-04T08:36:33.412Z,3880.00
2023-06-04T08:37:33.417Z,3884.00
2023-06-04T08:38:33.451Z,3904.00
2023-06-04T08:39:33.638Z,3904.00
2023-06-04T08:40:33.416Z,3904.00
2023-06-04T08:41:35.226Z,3904.00
2023-06-04T08:42:35.293Z,3912.00
2023-06-04T08:43:35.391Z,3924.00
2023-06-04T08:44:34.138Z,3916.00
2023-06-04T08:45:33.715Z,3924.00
2023-06-04T08:46:36.143Z,3964.00
2023-06-04T08:47:33.653Z,3948.00
2023-06-04T08:48:33.620Z,3944.00
2023-06-04T08:49:33.609Z,3948.00
2023-06-04T08:50:33.585Z,3952.00
2023-06-04T08:51:33.255Z,3964.00
2023-06-04T08:52:33.231Z,3968.00
2023-06-04T08:53:33.619Z,3972.00
2023-06-04T08:54:33.623Z,3976.00
2023-06-04T08:55:33.522Z,3980.00
2023-06-04T08:56:33.611Z,3992.00
2023-06-04T08:57:33.201Z,4004.00
2023-06-04T08:58:33.578Z,4008.00
2023-06-04T08:59:33.178Z,4012.00
2023-06-04T09:00:33.169Z,4016.00
2023-06-04T09:01:33.622Z,4020.00
2023-06-04T09:02:33.237Z,4020.00
2023-06-04T09:03:33.122Z,4032.00
2023-06-04T09:04:33.091Z,4048.00
2023-06-04T09:05:33.076Z,4048.00
2023-06-04T09:06:33.068Z,4052.00
2023-06-04T09:07:33.092Z,4000.00
2023-06-04T09:08:33.036Z,4076.00
2023-06-04T09:09:33.051Z,4084.00
2023-06-04T09:10:33.377Z,4104.00
2023-06-04T09:11:33.011Z,4088.00
2023-06-04T09:12:33.923Z,4096.00
2023-06-04T09:13:32.985Z,4120.00
2023-06-04T09:14:33.246Z,4120.00
2023-06-04T09:15:34.885Z,4164.00
2023-06-04T09:16:33.122Z,4192.00
2023-06-04T09:17:33.034Z,4116.00
2023-06-04T09:18:33.034Z,4100.00
2023-06-04T09:19:33.971Z,4168.00
2023-06-04T09:20:32.896Z,4160.00
2023-06-04T09:21:33.169Z,4168.00
2023-06-04T09:22:33.686Z,4184.00
2023-06-04T09:23:34.140Z,4196.00
2023-06-04T09:24:32.851Z,4260.00
2023-06-04T09:25:32.911Z,4192.00
2023-06-04T09:26:32.838Z,4196.00
2023-06-04T09:27:33.196Z,4200.00
2023-06-04T09:28:33.119Z,4224.00
2023-06-04T09:29:32.815Z,4236.00
2023-06-04T09:30:33.756Z,4256.00
2023-06-04T09:31:32.867Z,4248.00
2023-06-04T09:32:32.798Z,4264.00
2023-06-04T09:33:33.075Z,4264.00
2023-06-04T09:34:32.761Z,4272.00
2023-06-04T09:35:33.063Z,4280.00
2023-06-04T09:36:32.767Z,4284.00
2023-06-04T09:37:32.686Z,4304.00
2023-06-04T09:38:32.671Z,4308.00
2023-06-04T09:39:32.693Z,4312.00
2023-06-04T09:40:32.675Z,4320.00
2023-06-04T09:41:34.492Z,4332.00
2023-06-04T09:42:33.583Z,4352.00
2023-06-04T09:43:32.631Z,4368.00
2023-06-04T09:44:32.637Z,4584.00
2023-06-04T09:45:32.887Z,4436.00
2023-06-04T09:46:32.654Z,4456.00
2023-06-04T09:47:32.603Z,4480.00
2023-06-04T09:48:32.594Z,4504.00
2023-06-04T09:49:32.564Z,4528.00
2023-06-04T09:50:35.517Z,4544.00
2023-06-04T09:51:32.551Z,4600.00
2023-06-04T09:52:32.508Z,4616.00
2023-06-04T09:53:32.791Z,4640.00
2023-06-04T09:54:33.103Z,4656.00
2023-06-04T09:55:33.573Z,4676.00
2023-06-04T09:56:33.108Z,4700.00
2023-06-04T09:57:32.465Z,4732.00
2023-06-04T09:58:32.479Z,4744.00
2023-06-04T09:59:33.225Z,4772.00
2023-06-04T10:00:33.449Z,4792.00
2023-06-04T10:01:32.935Z,4812.00
2023-06-04T10:02:35.819Z,4824.00
2023-06-04T10:03:32.476Z,4968.00
2023-06-04T10:04:32.392Z,4916.00
2023-06-04T10:05:32.399Z,4900.00
2023-06-04T10:06:34.178Z,4920.00
2023-06-04T10:07:33.613Z,4952.00
2023-06-04T10:08:32.934Z,4976.00
2023-06-04T10:09:33.503Z,4996.00
2023-06-04T10:10:32.361Z,5028.00
2023-06-04T10:11:32.333Z,5036.00
2023-06-04T10:12:32.632Z,5088.00
2023-06-04T10:13:32.681Z,5144.00
2023-06-04T10:14:32.364Z,5132.00
2023-06-04T10:15:33.228Z,5132.00
2023-06-04T10:16:34.819Z,5164.00
2023-06-04T10:17:33.329Z,5180.00
2023-06-04T10:18:32.404Z,5200.00
2023-06-04T10:19:32.242Z,5208.00
2023-06-04T10:20:32.196Z,5204.00
2023-06-04T10:21:32.307Z,5248.00
2023-06-04T10:22:32.233Z,5276.00
2023-06-04T10:23:32.184Z,5284.00
2023-06-04T10:24:32.209Z,5308.00
2023-06-04T10:25:33.274Z,5332.00
2023-06-04T10:26:32.155Z,5340.00
2023-06-04T10:27:32.120Z,5364.00
2023-06-04T10:28:32.174Z,5380.00
2023-06-04T10:29:32.434Z,5388.00
2023-06-04T10:30:32.145Z,5412.00
2023-06-04T10:31:32.206Z,5432.00
2023-06-04T10:32:32.165Z,5444.00
2023-06-04T10:33:35.843Z,5480.00
2023-06-04T10:34:32.040Z,5500.00
2023-06-04T10:35:32.124Z,5492.00
2023-06-04T10:36:32.034Z,5520.00
2023-06-04T10:37:32.020Z,5552.00
2023-06-04T10:38:32.018Z,5560.00
2023-06-04T10:39:32.063Z,5812.00
2023-06-04T10:40:31.997Z,5604.00
2023-06-04T10:41:31.982Z,5632.00
2023-06-04T10:42:32.033Z,5612.00
2023-06-04T10:43:33.255Z,5624.00
2023-06-04T10:44:31.933Z,5616.00
2023-06-04T10:45:31.953Z,5620.00
2023-06-04T10:46:32.007Z,5620.00
2023-06-04T10:47:32.001Z,5640.00
2023-06-04T10:48:31.888Z,5620.00
2023-06-04T10:49:31.927Z,5612.00
2023-06-04T10:50:31.888Z,5632.00
2023-06-04T10:51:31.888Z,5644.00
2023-06-04T10:52:31.886Z,5624.00
2023-06-04T10:53:31.825Z,5644.00
2023-06-04T10:54:31.909Z,5732.00
2023-06-04T10:55:31.818Z,5632.00
2023-06-04T10:56:31.842Z,5616.00
2023-06-04T10:57:32.783Z,5620.00
2023-06-04T10:58:31.770Z,5624.00
2023-06-04T10:59:31.784Z,5612.00
2023-06-04T11:00:31.862Z,5608.00
2023-06-04T11:01:31.772Z,5612.00
2023-06-04T11:02:32.792Z,5600.00
2023-06-04T11:03:32.007Z,5620.00
2023-06-04T11:04:32.649Z,5608.00
2023-06-04T11:05:32.521Z,5624.00
2023-06-04T11:06:32.909Z,5636.00
2023-06-04T11:07:32.814Z,5608.00
2023-06-04T11:08:32.710Z,5712.00
2023-06-04T11:09:34.494Z,5636.00
2023-06-04T11:10:32.531Z,5600.00
2023-06-04T11:11:32.450Z,5584.00
2023-06-04T11:12:32.335Z,5588.00
2023-06-04T11:13:32.664Z,5580.00
2023-06-04T11:14:32.694Z,5580.00
2023-06-04T11:15:32.575Z,5568.00
2023-06-04T11:16:32.557Z,5584.00
2023-06-04T11:17:32.409Z,5592.00
2023-06-04T11:18:32.259Z,5596.00
2023-06-04T11:19:32.692Z,5568.00
2023-06-04T11:20:32.587Z,5620.00
2023-06-04T11:21:32.487Z,5580.00
2023-06-04T11:22:32.402Z,5552.00
2023-06-04T11:23:34.935Z,5568.00
2023-06-04T11:24:32.190Z,5548.00
2023-06-04T11:25:32.614Z,5548.00
2023-06-04T11:26:32.522Z,5552.00
2023-06-04T11:27:36.938Z,5548.00
2023-06-04T11:28:32.321Z,5528.00
2023-06-04T11:29:31.599Z,5540.00
2023-06-04T11:30:32.139Z,5544.00
2023-06-04T11:31:33.401Z,5564.00
2023-06-04T11:32:31.444Z,5540.00
2023-06-04T11:33:31.380Z,5532.00
2023-06-04T11:34:31.355Z,5560.00
2023-06-04T11:35:31.367Z,5532.00
2023-06-04T11:36:31.331Z,5612.00
2023-06-04T11:37:31.344Z,5572.00
2023-06-04T11:38:31.342Z,5540.00
2023-06-04T11:39:31.290Z,5532.00
2023-06-04T11:40:31.298Z,5536.00
2023-06-04T11:41:31.386Z,5528.00
2023-06-04T11:42:31.313Z,5516.00
2023-06-04T11:43:31.261Z,5540.00
2023-06-04T11:44:31.632Z,5516.00
2023-06-04T11:45:32.730Z,5520.00
2023-06-04T11:46:31.227Z,5536.00
2023-06-04T11:47:31.316Z,5512.00
2023-06-04T11:48:31.649Z,5512.00
2023-06-04T11:49:32.150Z,5508.00
2023-06-04T11:50:31.237Z,5508.00
2023-06-04T11:51:31.946Z,5508.00
2023-06-04T11:52:31.179Z,5548.00
2023-06-04T11:53:35.012Z,5492.00
2023-06-04T11:54:31.161Z,5524.00
2023-06-04T11:55:31.230Z,5508.00
2023-06-04T11:56:32.034Z,5500.00
2023-06-04T11:57:31.169Z,5512.00
2023-06-04T11:58:32.020Z,5516.00
2023-06-04T11:59:31.116Z,5492.00
2023-06-04T12:00:31.064Z,5488.00
2023-06-04T12:01:31.038Z,5480.00
2023-06-04T12:02:31.318Z,5480.00
2023-06-04T12:03:31.068Z,5440.00
2023-06-04T12:04:31.091Z,5436.00
2023-06-04T12:05:32.193Z,5432.00
2023-06-04T12:06:32.031Z,5424.00
2023-06-04T12:07:31.019Z,5424.00
2023-06-04T12:08:30.946Z,5416.00
2023-06-04T12:09:30.971Z,5436.00
2023-06-04T12:10:30.955Z,5408.00
2023-06-04T12:11:30.978Z,5420.00
2023-06-04T12:12:30.920Z,5416.00
2023-06-04T12:13:30.948Z,5424.00
2023-06-04T12:14:31.249Z,5408.00
2023-06-04T12:15:30.914Z,5408.00
2023-06-04T12:16:30.895Z,5380.00
2023-06-04T12:17:30.939Z,5408.00
2023-06-04T12:18:31.828Z,5408.00
2023-06-04T12:19:30.890Z,5392.00
2023-06-04T12:20:31.943Z,5412.00
2023-06-04T12:21:30.841Z,5396.00
2023-06-04T12:22:31.731Z,5396.00
2023-06-04T12:23:30.934Z,5396.00
2023-06-04T12:24:30.821Z,5416.00
2023-06-04T12:25:30.803Z,5408.00